sensor_id;sensor_type;location;lat;lon;timestamp;P1;durP1;ratioP1;P2;durP2;ratioP2
21138;SDS011;10727;43.600;1.444;2023-04-25T00:01:54;3.95;;;2.30;;
21138;SDS011;10727;43.600;1.444;2023-04-25T00:04:59;5.10;;;3.03;;
21138;SDS011;10727;43.600;1.444;2023-04-25T00:08:04;4.30;;;2.50;;
21138;SDS011;10727;43.600;1.444;2023-04-25T00:11:09;3.75;;;2.75;;
21138;SDS011;10727;43.600;1.444;2023-04-25T00:14:16;4.05;;;2.53;;
21138;SDS011;10727;43.600;1.444;2023-04-25T00:17:21;3.22;;;2.40;;
21138;SDS011;10727;43.600;1.444;2023-04-25T00:20:27;3.15;;;2.50;;
21138;SDS011;10727;43.600;1.444;2023-04-25T00:23:32;3.97;;;2.55;;
21138;SDS011;10727;43.600;1.444;2023-04-25T00:26:39;3.20;;;2.63;;
21138;SDS011;10727;43.600;1.444;2023-04-25T00:29:48;4.32;;;2.38;;
21138;SDS011;10727;43.600;1.444;2023-04-25T00:32:53;5.18;;;2.45;;
21138;SDS011;10727;43.600;1.444;2023-04-25T00:35:58;3.67;;;2.70;;
21138;SDS011;10727;43.600;1.444;2023-04-25T00:39:04;3.28;;;2.55;;
21138;SDS011;10727;43.600;1.444;2023-04-25T00:42:09;5.75;;;2.80;;
21138;SDS011;10727;43.600;1.444;2023-04-25T00:45:15;3.60;;;2.63;;
21138;SDS011;10727;43.600;1.444;2023-04-25T00:48:21;2.78;;;2.45;;
21138;SDS011;10727;43.600;1.444;2023-04-25T00:51:29;3.85;;;2.40;;
21138;SDS011;10727;43.600;1.444;2023-04-25T00:54:50;2.67;;;2.42;;
21138;SDS011;10727;43.600;1.444;2023-04-25T00:57:56;5.85;;;2.78;;
21138;SDS011;10727;43.600;1.444;2023-04-25T01:01:02;3.25;;;2.50;;
21138;SDS011;10727;43.600;1.444;2023-04-25T01:04:08;3.65;;;2.83;;
21138;SDS011;10727;43.600;1.444;2023-04-25T01:07:13;4.10;;;3.20;;
21138;SDS011;10727;43.600;1.444;2023-04-25T01:10:18;3.25;;;2.88;;
21138;SDS011;10727;43.600;1.444;2023-04-25T01:13:23;3.58;;;2.80;;
21138;SDS011;10727;43.600;1.444;2023-04-25T01:16:30;3.95;;;2.70;;
21138;SDS011;10727;43.600;1.444;2023-04-25T01:19:35;3.97;;;2.90;;
21138;SDS011;10727;43.600;1.444;2023-04-25T01:22:42;5.03;;;2.70;;
21138;SDS011;10727;43.600;1.444;2023-04-25T01:25:47;3.33;;;2.67;;
21138;SDS011;10727;43.600;1.444;2023-04-25T01:28:58;3.97;;;2.58;;
21138;SDS011;10727;43.600;1.444;2023-04-25T01:32:03;3.75;;;2.10;;
21138;SDS011;10727;43.600;1.444;2023-04-25T01:35:10;2.83;;;2.00;;
21138;SDS011;10727;43.600;1.444;2023-04-25T01:38:17;2.05;;;1.50;;
21138;SDS011;10727;43.600;1.444;2023-04-25T01:41:21;1.83;;;1.10;;
21138;SDS011;10727;43.600;1.444;2023-04-25T01:44:27;2.72;;;1.67;;
21138;SDS011;10727;43.600;1.444;2023-04-25T01:47:33;1.17;;;1.08;;
21138;SDS011;10727;43.600;1.444;2023-04-25T01:50:39;2.40;;;1.13;;
21138;SDS011;10727;43.600;1.444;2023-04-25T01:53:46;1.40;;;1.10;;
21138;SDS011;10727;43.600;1.444;2023-04-25T01:56:51;1.88;;;1.10;;
21138;SDS011;10727;43.600;1.444;2023-04-25T02:00:02;1.95;;;1.00;;
21138;SDS011;10727;43.600;1.444;2023-04-25T02:03:16;1.85;;;1.00;;
21138;SDS011;10727;43.600;1.444;2023-04-25T02:06:21;0.90;;;0.80;;
21138;SDS011;10727;43.600;1.444;2023-04-25T02:09:30;1.65;;;0.80;;
21138;SDS011;10727;43.600;1.444;2023-04-25T02:12:36;1.55;;;0.77;;
21138;SDS011;10727;43.600;1.444;2023-04-25T02:15:57;0.93;;;0.70;;
21138;SDS011;10727;43.600;1.444;2023-04-25T02:19:03;2.05;;;0.82;;
21138;SDS011;10727;43.600;1.444;2023-04-25T02:22:08;1.17;;;0.60;;
21138;SDS011;10727;43.600;1.444;2023-04-25T02:25:15;1.17;;;0.70;;
21138;SDS011;10727;43.600;1.444;2023-04-25T02:28:20;1.38;;;0.60;;
21138;SDS011;10727;43.600;1.444;2023-04-25T02:31:25;0.52;;;0.50;;
21138;SDS011;10727;43.600;1.444;2023-04-25T02:34:30;1.00;;;0.60;;
21138;SDS011;10727;43.600;1.444;2023-04-25T02:37:38;0.68;;;0.60;;
21138;SDS011;10727;43.600;1.444;2023-04-25T02:40:45;1.55;;;0.60;;
21138;SDS011;10727;43.600;1.444;2023-04-25T02:43:50;0.82;;;0.60;;
21138;SDS011;10727;43.600;1.444;2023-04-25T02:46:56;0.73;;;0.45;;
21138;SDS011;10727;43.600;1.444;2023-04-25T02:50:01;0.75;;;0.50;;
21138;SDS011;10727;43.600;1.444;2023-04-25T02:53:06;0.65;;;0.60;;
21138;SDS011;10727;43.600;1.444;2023-04-25T02:56:21;0.50;;;0.50;;
21138;SDS011;10727;43.600;1.444;2023-04-25T02:59:31;1.17;;;0.50;;
21138;SDS011;10727;43.600;1.444;2023-04-25T03:02:36;0.63;;;0.60;;
21138;SDS011;10727;43.600;1.444;2023-04-25T03:05:42;0.68;;;0.52;;
21138;SDS011;10727;43.600;1.444;2023-04-25T03:08:47;1.02;;;0.60;;
21138;SDS011;10727;43.600;1.444;2023-04-25T03:11:54;0.50;;;0.50;;
21138;SDS011;10727;43.600;1.444;2023-04-25T03:14:59;0.50;;;0.50;;
21138;SDS011;10727;43.600;1.444;2023-04-25T03:18:04;0.70;;;0.70;;
21138;SDS011;10727;43.600;1.444;2023-04-25T03:21:16;2.28;;;0.52;;
21138;SDS011;10727;43.600;1.444;2023-04-25T03:24:21;0.55;;;0.55;;
21138;SDS011;10727;43.600;1.444;2023-04-25T03:27:28;0.80;;;0.50;;
21138;SDS011;10727;43.600;1.444;2023-04-25T03:30:33;0.50;;;0.40;;
21138;SDS011;10727;43.600;1.444;2023-04-25T03:33:43;0.40;;;0.40;;
21138;SDS011;10727;43.600;1.444;2023-04-25T03:36:49;0.40;;;0.40;;
21138;SDS011;10727;43.600;1.444;2023-04-25T03:39:54;0.63;;;0.60;;
21138;SDS011;10727;43.600;1.444;2023-04-25T03:43:03;1.45;;;0.47;;
21138;SDS011;10727;43.600;1.444;2023-04-25T03:46:09;0.50;;;0.50;;
21138;SDS011;10727;43.600;1.444;2023-04-25T03:49:16;0.68;;;0.52;;
21138;SDS011;10727;43.600;1.444;2023-04-25T03:52:33;0.90;;;0.60;;
21138;SDS011;10727;43.600;1.444;2023-04-25T03:55:39;1.98;;;0.60;;
21138;SDS011;10727;43.600;1.444;2023-04-25T03:58:49;1.48;;;0.60;;
21138;SDS011;10727;43.600;1.444;2023-04-25T04:01:56;0.52;;;0.52;;
21138;SDS011;10727;43.600;1.444;2023-04-25T04:05:02;0.60;;;0.60;;
21138;SDS011;10727;43.600;1.444;2023-04-25T04:08:09;0.50;;;0.50;;
21138;SDS011;10727;43.600;1.444;2023-04-25T04:11:16;1.65;;;0.50;;
21138;SDS011;10727;43.600;1.444;2023-04-25T04:14:23;0.88;;;0.50;;
21138;SDS011;10727;43.600;1.444;2023-04-25T04:17:28;0.93;;;0.68;;
21138;SDS011;10727;43.600;1.444;2023-04-25T04:20:34;2.40;;;0.65;;
21138;SDS011;10727;43.600;1.444;2023-04-25T04:23:58;0.65;;;0.63;;
21138;SDS011;10727;43.600;1.444;2023-04-25T04:27:06;0.60;;;0.60;;
21138;SDS011;10727;43.600;1.444;2023-04-25T04:30:37;1.25;;;0.60;;
21138;SDS011;10727;43.600;1.444;2023-04-25T04:33:44;1.25;;;0.57;;
21138;SDS011;10727;43.600;1.444;2023-04-25T04:36:51;1.65;;;0.70;;
21138;SDS011;10727;43.600;1.444;2023-04-25T04:39:57;0.50;;;0.50;;
21138;SDS011;10727;43.600;1.444;2023-04-25T04:43:28;0.70;;;0.60;;
21138;SDS011;10727;43.600;1.444;2023-04-25T04:47:15;0.90;;;0.60;;
21138;SDS011;10727;43.600;1.444;2023-04-25T04:50:37;1.70;;;0.60;;
21138;SDS011;10727;43.600;1.444;2023-04-25T04:53:56;0.75;;;0.50;;
21138;SDS011;10727;43.600;1.444;2023-04-25T04:57:25;0.82;;;0.70;;
21138;SDS011;10727;43.600;1.444;2023-04-25T05:00:42;1.90;;;0.63;;
21138;SDS011;10727;43.600;1.444;2023-04-25T05:04:06;1.10;;;0.60;;
21138;SDS011;10727;43.600;1.444;2023-04-25T05:07:30;2.15;;;0.75;;
21138;SDS011;10727;43.600;1.444;2023-04-25T05:10:55;0.70;;;0.70;;
21138;SDS011;10727;43.600;1.444;2023-04-25T05:14:12;0.68;;;0.68;;
21138;SDS011;10727;43.600;1.444;2023-04-25T05:17:23;0.60;;;0.60;;
21138;SDS011;10727;43.600;1.444;2023-04-25T05:20:46;0.80;;;0.80;;
21138;SDS011;10727;43.600;1.444;2023-04-25T05:24:12;1.90;;;0.88;;
21138;SDS011;10727;43.600;1.444;2023-04-25T05:27:36;0.80;;;0.68;;
21138;SDS011;10727;43.600;1.444;2023-04-25T05:30:53;0.60;;;0.60;;
21138;SDS011;10727;43.600;1.444;2023-04-25T05:34:05;2.35;;;0.82;;
21138;SDS011;10727;43.600;1.444;2023-04-25T05:37:32;0.77;;;0.77;;
21138;SDS011;10727;43.600;1.444;2023-04-25T05:40:46;1.88;;;0.90;;
21138;SDS011;10727;43.600;1.444;2023-04-25T05:44:15;1.25;;;0.93;;
21138;SDS011;10727;43.600;1.444;2023-04-25T05:47:35;1.33;;;0.85;;
21138;SDS011;10727;43.600;1.444;2023-04-25T05:50:47;0.90;;;0.70;;
21138;SDS011;10727;43.600;1.444;2023-04-25T05:54:19;1.67;;;0.70;;
21138;SDS011;10727;43.600;1.444;2023-04-25T05:57:25;1.88;;;0.90;;
21138;SDS011;10727;43.600;1.444;2023-04-25T06:00:32;0.80;;;0.70;;
21138;SDS011;10727;43.600;1.444;2023-04-25T06:03:38;0.80;;;0.80;;
21138;SDS011;10727;43.600;1.444;2023-04-25T06:06:46;1.92;;;1.00;;
21138;SDS011;10727;43.600;1.444;2023-04-25T06:09:52;3.15;;;0.90;;
21138;SDS011;10727;43.600;1.444;2023-04-25T06:12:57;3.10;;;1.05;;
21138;SDS011;10727;43.600;1.444;2023-04-25T06:16:03;1.58;;;0.90;;
21138;SDS011;10727;43.600;1.444;2023-04-25T06:19:08;1.50;;;0.90;;
21138;SDS011;10727;43.600;1.444;2023-04-25T06:22:14;1.80;;;1.35;;
21138;SDS011;10727;43.600;1.444;2023-04-25T06:25:21;1.70;;;1.15;;
21138;SDS011;10727;43.600;1.444;2023-04-25T06:28:26;3.40;;;1.30;;
21138;SDS011;10727;43.600;1.444;2023-04-25T06:31:33;1.27;;;0.93;;
21138;SDS011;10727;43.600;1.444;2023-04-25T06:34:39;1.60;;;1.10;;
21138;SDS011;10727;43.600;1.444;2023-04-25T06:37:44;1.30;;;0.90;;
21138;SDS011;10727;43.600;1.444;2023-04-25T06:40:51;2.20;;;0.98;;
21138;SDS011;10727;43.600;1.444;2023-04-25T06:43:56;4.63;;;1.05;;
21138;SDS011;10727;43.600;1.444;2023-04-25T06:47:09;2.05;;;1.42;;
21138;SDS011;10727;43.600;1.444;2023-04-25T06:50:17;2.30;;;1.50;;
21138;SDS011;10727;43.600;1.444;2023-04-25T06:53:39;2.72;;;1.17;;
21138;SDS011;10727;43.600;1.444;2023-04-25T06:56:50;1.15;;;1.05;;
21138;SDS011;10727;43.600;1.444;2023-04-25T06:59:56;1.30;;;1.10;;
21138;SDS011;10727;43.600;1.444;2023-04-25T07:03:01;1.10;;;0.90;;
21138;SDS011;10727;43.600;1.444;2023-04-25T07:06:06;2.80;;;1.20;;
21138;SDS011;10727;43.600;1.444;2023-04-25T07:09:12;1.55;;;0.90;;
21138;SDS011;10727;43.600;1.444;2023-04-25T07:12:22;1.27;;;0.90;;
21138;SDS011;10727;43.600;1.444;2023-04-25T07:15:30;7.85;;;5.45;;
21138;SDS011;10727;43.600;1.444;2023-04-25T07:18:37;5.63;;;4.10;;
21138;SDS011;10727;43.600;1.444;2023-04-25T07:21:42;2.00;;;1.13;;
21138;SDS011;10727;43.600;1.444;2023-04-25T07:24:48;1.33;;;0.85;;
21138;SDS011;10727;43.600;1.444;2023-04-25T07:27:58;6.75;;;1.30;;
21138;SDS011;10727;43.600;1.444;2023-04-25T07:31:04;5.00;;;1.00;;
21138;SDS011;10727;43.600;1.444;2023-04-25T07:34:09;3.35;;;0.90;;
21138;SDS011;10727;43.600;1.444;2023-04-25T07:37:15;3.53;;;0.82;;
21138;SDS011;10727;43.600;1.444;2023-04-25T07:40:35;1.52;;;0.70;;
21138;SDS011;10727;43.600;1.444;2023-04-25T07:43:45;2.88;;;1.10;;
21138;SDS011;10727;43.600;1.444;2023-04-25T07:46:50;2.10;;;0.82;;
21138;SDS011;10727;43.600;1.444;2023-04-25T07:49:55;0.60;;;0.60;;
21138;SDS011;10727;43.600;1.444;2023-04-25T07:53:01;0.85;;;0.70;;
21138;SDS011;10727;43.600;1.444;2023-04-25T07:56:17;2.63;;;1.02;;
21138;SDS011;10727;43.600;1.444;2023-04-25T07:59:26;1.85;;;0.82;;
21138;SDS011;10727;43.600;1.444;2023-04-25T08:02:31;3.90;;;1.00;;
21138;SDS011;10727;43.600;1.444;2023-04-25T08:05:37;2.40;;;1.00;;
21138;SDS011;10727;43.600;1.444;2023-04-25T08:08:43;2.83;;;1.13;;
21138;SDS011;10727;43.600;1.444;2023-04-25T08:11:54;2.50;;;1.00;;
21138;SDS011;10727;43.600;1.444;2023-04-25T08:15:06;2.80;;;1.08;;
21138;SDS011;10727;43.600;1.444;2023-04-25T08:18:15;6.97;;;1.13;;
21138;SDS011;10727;43.600;1.444;2023-04-25T08:21:25;1.73;;;0.82;;
21138;SDS011;10727;43.600;1.444;2023-04-25T08:24:33;3.22;;;1.02;;
21138;SDS011;10727;43.600;1.444;2023-04-25T08:27:39;6.28;;;1.30;;
21138;SDS011;10727;43.600;1.444;2023-04-25T08:30:47;6.57;;;1.30;;
21138;SDS011;10727;43.600;1.444;2023-04-25T08:33:55;2.10;;;1.42;;
21138;SDS011;10727;43.600;1.444;2023-04-25T08:37:18;6.57;;;1.20;;
21138;SDS011;10727;43.600;1.444;2023-04-25T08:40:37;3.65;;;1.00;;
21138;SDS011;10727;43.600;1.444;2023-04-25T08:43:52;7.53;;;1.17;;
21138;SDS011;10727;43.600;1.444;2023-04-25T08:46:59;9.73;;;1.30;;
21138;SDS011;10727;43.600;1.444;2023-04-25T08:50:08;7.47;;;1.40;;
21138;SDS011;10727;43.600;1.444;2023-04-25T08:53:14;7.97;;;1.77;;
21138;SDS011;10727;43.600;1.444;2023-04-25T08:56:23;4.72;;;1.40;;
21138;SDS011;10727;43.600;1.444;2023-04-25T08:59:28;4.45;;;1.20;;
21138;SDS011;10727;43.600;1.444;2023-04-25T09:02:36;1.75;;;1.00;;
21138;SDS011;10727;43.600;1.444;2023-04-25T09:05:41;3.42;;;1.17;;
21138;SDS011;10727;43.600;1.444;2023-04-25T09:08:49;2.92;;;1.30;;
21138;SDS011;10727;43.600;1.444;2023-04-25T09:11:54;6.07;;;1.83;;
21138;SDS011;10727;43.600;1.444;2023-04-25T09:15:02;5.93;;;1.58;;
21138;SDS011;10727;43.600;1.444;2023-04-25T09:18:30;6.97;;;1.52;;
21138;SDS011;10727;43.600;1.444;2023-04-25T09:21:37;5.50;;;1.40;;
21138;SDS011;10727;43.600;1.444;2023-04-25T09:24:42;3.65;;;1.60;;
21138;SDS011;10727;43.600;1.444;2023-04-25T09:27:49;3.25;;;1.45;;
21138;SDS011;10727;43.600;1.444;2023-04-25T09:30:59;8.80;;;1.27;;
21138;SDS011;10727;43.600;1.444;2023-04-25T09:34:14;8.65;;;1.63;;
21138;SDS011;10727;43.600;1.444;2023-04-25T09:37:29;8.65;;;1.58;;
21138;SDS011;10727;43.600;1.444;2023-04-25T09:40:53;8.73;;;1.70;;
21138;SDS011;10727;43.600;1.444;2023-04-25T09:44:22;11.73;;;2.00;;
21138;SDS011;10727;43.600;1.444;2023-04-25T09:47:29;10.25;;;2.22;;
21138;SDS011;10727;43.600;1.444;2023-04-25T09:50:38;3.42;;;2.28;;
21138;SDS011;10727;43.600;1.444;2023-04-25T09:53:47;6.93;;;1.73;;
21138;SDS011;10727;43.600;1.444;2023-04-25T09:57:16;3.72;;;1.60;;
21138;SDS011;10727;43.600;1.444;2023-04-25T10:00:22;4.10;;;2.03;;
21138;SDS011;10727;43.600;1.444;2023-04-25T10:03:28;8.38;;;1.98;;
21138;SDS011;10727;43.600;1.444;2023-04-25T10:07:06;10.07;;;1.98;;
21138;SDS011;10727;43.600;1.444;2023-04-25T10:10:12;4.47;;;1.95;;
21138;SDS011;10727;43.600;1.444;2023-04-25T10:13:33;6.88;;;2.05;;
21138;SDS011;10727;43.600;1.444;2023-04-25T10:17:01;3.80;;;1.80;;
21138;SDS011;10727;43.600;1.444;2023-04-25T10:20:07;2.95;;;2.00;;
21138;SDS011;10727;43.600;1.444;2023-04-25T10:23:15;3.97;;;1.88;;
21138;SDS011;10727;43.600;1.444;2023-04-25T10:26:20;4.40;;;1.83;;
21138;SDS011;10727;43.600;1.444;2023-04-25T10:29:28;3.42;;;1.73;;
21138;SDS011;10727;43.600;1.444;2023-04-25T10:32:33;4.35;;;1.50;;
21138;SDS011;10727;43.600;1.444;2023-04-25T10:35:39;3.90;;;1.90;;
21138;SDS011;10727;43.600;1.444;2023-04-25T10:38:46;2.97;;;1.63;;
21138;SDS011;10727;43.600;1.444;2023-04-25T10:41:53;3.03;;;2.05;;
21138;SDS011;10727;43.600;1.444;2023-04-25T10:45:01;3.65;;;2.22;;
21138;SDS011;10727;43.600;1.444;2023-04-25T10:51:29;2.67;;;1.70;;
21138;SDS011;10727;43.600;1.444;2023-04-25T10:54:41;3.13;;;1.73;;
21138;SDS011;10727;43.600;1.444;2023-04-25T10:57:49;3.95;;;2.05;;
21138;SDS011;10727;43.600;1.444;2023-04-25T11:00:54;3.05;;;1.88;;
21138;SDS011;10727;43.600;1.444;2023-04-25T11:04:01;5.40;;;2.20;;
21138;SDS011;10727;43.600;1.444;2023-04-25T11:07:13;3.92;;;1.73;;
21138;SDS011;10727;43.600;1.444;2023-04-25T11:10:26;2.38;;;1.80;;
21138;SDS011;10727;43.600;1.444;2023-04-25T11:13:32;2.53;;;1.80;;
21138;SDS011;10727;43.600;1.444;2023-04-25T11:16:37;2.75;;;1.73;;
21138;SDS011;10727;43.600;1.444;2023-04-25T11:19:43;2.80;;;1.70;;
21138;SDS011;10727;43.600;1.444;2023-04-25T11:22:47;3.33;;;2.10;;
21138;SDS011;10727;43.600;1.444;2023-04-25T11:25:54;7.15;;;1.80;;
21138;SDS011;10727;43.600;1.444;2023-04-25T11:28:59;4.75;;;1.80;;
21138;SDS011;10727;43.600;1.444;2023-04-25T11:32:04;5.35;;;2.17;;
21138;SDS011;10727;43.600;1.444;2023-04-25T11:35:09;3.33;;;1.95;;
21138;SDS011;10727;43.600;1.444;2023-04-25T11:38:19;5.82;;;1.98;;
21138;SDS011;10727;43.600;1.444;2023-04-25T11:41:26;6.82;;;1.50;;
21138;SDS011;10727;43.600;1.444;2023-04-25T11:44:31;1.83;;;1.20;;
21138;SDS011;10727;43.600;1.444;2023-04-25T11:47:37;2.25;;;1.30;;
21138;SDS011;10727;43.600;1.444;2023-04-25T11:50:42;2.17;;;1.25;;
21138;SDS011;10727;43.600;1.444;2023-04-25T11:53:57;2.13;;;1.20;;
21138;SDS011;10727;43.600;1.444;2023-04-25T11:57:03;2.55;;;1.40;;
21138;SDS011;10727;43.600;1.444;2023-04-25T12:00:12;1.83;;;1.30;;
21138;SDS011;10727;43.600;1.444;2023-04-25T12:03:18;2.13;;;1.55;;
21138;SDS011;10727;43.600;1.444;2023-04-25T12:06:29;3.00;;;1.60;;
21138;SDS011;10727;43.600;1.444;2023-04-25T12:09:39;1.65;;;1.27;;
21138;SDS011;10727;43.600;1.444;2023-04-25T12:12:46;4.88;;;1.30;;
21138;SDS011;10727;43.600;1.444;2023-04-25T12:15:53;1.00;;;0.80;;
21138;SDS011;10727;43.600;1.444;2023-04-25T12:18:59;1.80;;;1.08;;
21138;SDS011;10727;43.600;1.444;2023-04-25T12:22:18;1.95;;;1.00;;
21138;SDS011;10727;43.600;1.444;2023-04-25T12:25:39;1.20;;;1.10;;
21138;SDS011;10727;43.600;1.444;2023-04-25T12:28:53;1.73;;;1.20;;
21138;SDS011;10727;43.600;1.444;2023-04-25T12:31:59;3.42;;;1.38;;
21138;SDS011;10727;43.600;1.444;2023-04-25T12:35:05;4.68;;;1.67;;
21138;SDS011;10727;43.600;1.444;2023-04-25T12:38:10;2.42;;;1.38;;
21138;SDS011;10727;43.600;1.444;2023-04-25T12:41:16;3.33;;;1.80;;
21138;SDS011;10727;43.600;1.444;2023-04-25T12:44:26;3.75;;;1.80;;
21138;SDS011;10727;43.600;1.444;2023-04-25T12:47:36;2.60;;;1.80;;
21138;SDS011;10727;43.600;1.444;2023-04-25T12:50:41;2.17;;;1.75;;
21138;SDS011;10727;43.600;1.444;2023-04-25T12:53:46;1.50;;;1.40;;
21138;SDS011;10727;43.600;1.444;2023-04-25T12:56:51;4.70;;;2.00;;
21138;SDS011;10727;43.600;1.444;2023-04-25T12:59:58;2.72;;;1.88;;
21138;SDS011;10727;43.600;1.444;2023-04-25T13:03:03;3.30;;;2.00;;
21138;SDS011;10727;43.600;1.444;2023-04-25T13:06:08;2.10;;;1.90;;
21138;SDS011;10727;43.600;1.444;2023-04-25T13:09:13;2.30;;;1.63;;
21138;SDS011;10727;43.600;1.444;2023-04-25T13:12:19;4.03;;;2.13;;
21138;SDS011;10727;43.600;1.444;2023-04-25T13:15:25;3.20;;;2.20;;
21138;SDS011;10727;43.600;1.444;2023-04-25T13:18:43;5.30;;;2.22;;
21138;SDS011;10727;43.600;1.444;2023-04-25T13:21:52;3.70;;;2.42;;
21138;SDS011;10727;43.600;1.444;2023-04-25T13:24:58;5.05;;;2.22;;
21138;SDS011;10727;43.600;1.444;2023-04-25T13:28:03;2.25;;;1.75;;
21138;SDS011;10727;43.600;1.444;2023-04-25T13:31:10;2.17;;;1.88;;
21138;SDS011;10727;43.600;1.444;2023-04-25T13:34:15;3.65;;;1.90;;
21138;SDS011;10727;43.600;1.444;2023-04-25T13:37:20;3.13;;;1.92;;
21138;SDS011;10727;43.600;1.444;2023-04-25T13:40:27;3.45;;;1.90;;
21138;SDS011;10727;43.600;1.444;2023-04-25T13:43:32;6.53;;;2.28;;
21138;SDS011;10727;43.600;1.444;2023-04-25T13:46:39;4.15;;;2.53;;
21138;SDS011;10727;43.600;1.444;2023-04-25T13:49:44;5.63;;;2.20;;
21138;SDS011;10727;43.600;1.444;2023-04-25T13:52:49;8.10;;;3.33;;
21138;SDS011;10727;43.600;1.444;2023-04-25T13:55:54;3.45;;;1.85;;
21138;SDS011;10727;43.600;1.444;2023-04-25T13:59:00;5.50;;;1.90;;
21138;SDS011;10727;43.600;1.444;2023-04-25T14:02:06;3.75;;;1.50;;
21138;SDS011;10727;43.600;1.444;2023-04-25T14:05:11;1.65;;;1.55;;
21138;SDS011;10727;43.600;1.444;2023-04-25T14:08:16;4.93;;;1.92;;
21138;SDS011;10727;43.600;1.444;2023-04-25T14:11:21;3.50;;;1.50;;
21138;SDS011;10727;43.600;1.444;2023-04-25T14:14:26;1.58;;;1.30;;
21138;SDS011;10727;43.600;1.444;2023-04-25T14:17:33;2.55;;;1.40;;
21138;SDS011;10727;43.600;1.444;2023-04-25T14:20:38;3.60;;;1.50;;
21138;SDS011;10727;43.600;1.444;2023-04-25T14:23:43;8.40;;;1.88;;
21138;SDS011;10727;43.600;1.444;2023-04-25T14:26:49;6.13;;;1.90;;
21138;SDS011;10727;43.600;1.444;2023-04-25T14:29:54;3.90;;;1.40;;
21138;SDS011;10727;43.600;1.444;2023-04-25T14:33:01;2.88;;;1.70;;
21138;SDS011;10727;43.600;1.444;2023-04-25T14:36:06;5.15;;;1.80;;
21138;SDS011;10727;43.600;1.444;2023-04-25T14:39:12;2.50;;;1.25;;
21138;SDS011;10727;43.600;1.444;2023-04-25T14:42:17;4.13;;;1.40;;
21138;SDS011;10727;43.600;1.444;2023-04-25T14:45:22;2.75;;;1.17;;
21138;SDS011;10727;43.600;1.444;2023-04-25T14:48:29;4.15;;;1.10;;
21138;SDS011;10727;43.600;1.444;2023-04-25T14:51:35;2.50;;;1.52;;
21138;SDS011;10727;43.600;1.444;2023-04-25T14:54:40;1.70;;;1.13;;
21138;SDS011;10727;43.600;1.444;2023-04-25T14:57:44;3.72;;;1.23;;
21138;SDS011;10727;43.600;1.444;2023-04-25T15:00:50;1.40;;;1.30;;
21138;SDS011;10727;43.600;1.444;2023-04-25T15:03:56;1.63;;;1.33;;
21138;SDS011;10727;43.600;1.444;2023-04-25T15:07:02;2.78;;;2.17;;
21138;SDS011;10727;43.600;1.444;2023-04-25T15:10:08;1.67;;;1.52;;
21138;SDS011;10727;43.600;1.444;2023-04-25T15:13:17;4.32;;;1.52;;
21138;SDS011;10727;43.600;1.444;2023-04-25T15:16:23;2.67;;;1.45;;
21138;SDS011;10727;43.600;1.444;2023-04-25T15:19:29;1.33;;;1.23;;
21138;SDS011;10727;43.600;1.444;2023-04-25T15:23:02;2.67;;;1.52;;
21138;SDS011;10727;43.600;1.444;2023-04-25T15:26:07;1.48;;;1.30;;
21138;SDS011;10727;43.600;1.444;2023-04-25T15:29:13;4.93;;;1.45;;
21138;SDS011;10727;43.600;1.444;2023-04-25T15:32:19;3.65;;;1.45;;
21138;SDS011;10727;43.600;1.444;2023-04-25T15:35:26;4.00;;;1.40;;
21138;SDS011;10727;43.600;1.444;2023-04-25T15:38:31;3.33;;;1.58;;
21138;SDS011;10727;43.600;1.444;2023-04-25T15:41:36;6.43;;;1.75;;
21138;SDS011;10727;43.600;1.444;2023-04-25T15:44:41;4.93;;;1.70;;
21138;SDS011;10727;43.600;1.444;2023-04-25T15:47:46;2.85;;;1.60;;
21138;SDS011;10727;43.600;1.444;2023-04-25T15:50:53;5.20;;;1.90;;
21138;SDS011;10727;43.600;1.444;2023-04-25T15:53:58;5.00;;;1.73;;
21138;SDS011;10727;43.600;1.444;2023-04-25T15:57:04;4.40;;;1.67;;
21138;SDS011;10727;43.600;1.444;2023-04-25T16:00:12;4.55;;;1.85;;
21138;SDS011;10727;43.600;1.444;2023-04-25T16:03:20;2.03;;;1.60;;
21138;SDS011;10727;43.600;1.444;2023-04-25T16:06:27;3.97;;;1.90;;
21138;SDS011;10727;43.600;1.444;2023-04-25T16:09:32;1.92;;;1.50;;
21138;SDS011;10727;43.600;1.444;2023-04-25T16:12:37;3.35;;;1.70;;
21138;SDS011;10727;43.600;1.444;2023-04-25T16:15:42;2.33;;;1.70;;
21138;SDS011;10727;43.600;1.444;2023-04-25T16:18:47;1.80;;;1.58;;
21138;SDS011;10727;43.600;1.444;2023-04-25T16:21:57;2.42;;;1.80;;
21138;SDS011;10727;43.600;1.444;2023-04-25T16:25:07;2.85;;;1.92;;
21138;SDS011;10727;43.600;1.444;2023-04-25T16:28:14;3.83;;;2.00;;
21138;SDS011;10727;43.600;1.444;2023-04-25T16:31:19;4.47;;;2.10;;
21138;SDS011;10727;43.600;1.444;2023-04-25T16:34:24;5.20;;;2.40;;
21138;SDS011;10727;43.600;1.444;2023-04-25T16:37:40;3.13;;;2.20;;
21138;SDS011;10727;43.600;1.444;2023-04-25T16:40:45;2.70;;;1.98;;
21138;SDS011;10727;43.600;1.444;2023-04-25T16:43:50;5.55;;;3.20;;
21138;SDS011;10727;43.600;1.444;2023-04-25T16:46:55;4.20;;;2.30;;
21138;SDS011;10727;43.600;1.444;2023-04-25T16:50:06;3.90;;;2.70;;
21138;SDS011;10727;43.600;1.444;2023-04-25T16:53:16;4.32;;;3.30;;
21138;SDS011;10727;43.600;1.444;2023-04-25T16:56:23;5.00;;;3.50;;
21138;SDS011;10727;43.600;1.444;2023-04-25T16:59:28;4.53;;;4.10;;
21138;SDS011;10727;43.600;1.444;2023-04-25T17:02:33;5.15;;;4.45;;
21138;SDS011;10727;43.600;1.444;2023-04-25T17:05:38;7.65;;;5.53;;
21138;SDS011;10727;43.600;1.444;2023-04-25T17:08:45;6.90;;;5.90;;
21138;SDS011;10727;43.600;1.444;2023-04-25T17:11:50;6.32;;;5.28;;
21138;SDS011;10727;43.600;1.444;2023-04-25T17:14:55;6.03;;;5.35;;
21138;SDS011;10727;43.600;1.444;2023-04-25T17:18:02;5.30;;;4.63;;
21138;SDS011;10727;43.600;1.444;2023-04-25T17:21:07;4.90;;;4.38;;
21138;SDS011;10727;43.600;1.444;2023-04-25T17:24:14;4.35;;;3.83;;
21138;SDS011;10727;43.600;1.444;2023-04-25T17:27:20;5.72;;;4.30;;
21138;SDS011;10727;43.600;1.444;2023-04-25T17:30:25;8.60;;;4.90;;
21138;SDS011;10727;43.600;1.444;2023-04-25T17:33:30;6.63;;;5.43;;
21138;SDS011;10727;43.600;1.444;2023-04-25T17:36:36;8.75;;;5.47;;
21138;SDS011;10727;43.600;1.444;2023-04-25T17:39:43;6.28;;;4.47;;
21138;SDS011;10727;43.600;1.444;2023-04-25T17:42:48;4.75;;;3.42;;
21138;SDS011;10727;43.600;1.444;2023-04-25T17:45:53;5.45;;;3.55;;
21138;SDS011;10727;43.600;1.444;2023-04-25T17:48:59;3.50;;;2.50;;
21138;SDS011;10727;43.600;1.444;2023-04-25T17:52:04;3.15;;;1.92;;
21138;SDS011;10727;43.600;1.444;2023-04-25T17:55:11;3.20;;;1.90;;
21138;SDS011;10727;43.600;1.444;2023-04-25T17:58:22;2.17;;;1.70;;
21138;SDS011;10727;43.600;1.444;2023-04-25T18:01:27;2.80;;;1.73;;
21138;SDS011;10727;43.600;1.444;2023-04-25T18:04:33;3.90;;;1.83;;
21138;SDS011;10727;43.600;1.444;2023-04-25T18:07:38;2.40;;;1.80;;
21138;SDS011;10727;43.600;1.444;2023-04-25T18:10:45;2.10;;;1.80;;
21138;SDS011;10727;43.600;1.444;2023-04-25T18:13:50;4.60;;;2.30;;
21138;SDS011;10727;43.600;1.444;2023-04-25T18:16:55;4.15;;;2.50;;
21138;SDS011;10727;43.600;1.444;2023-04-25T18:20:00;4.95;;;2.83;;
21138;SDS011;10727;43.600;1.444;2023-04-25T18:23:08;4.03;;;2.08;;
21138;SDS011;10727;43.600;1.444;2023-04-25T18:26:15;3.17;;;2.15;;
21138;SDS011;10727;43.600;1.444;2023-04-25T18:29:22;4.20;;;2.13;;
21138;SDS011;10727;43.600;1.444;2023-04-25T18:32:27;5.22;;;2.60;;
21138;SDS011;10727;43.600;1.444;2023-04-25T18:35:33;3.70;;;2.38;;
21138;SDS011;10727;43.600;1.444;2023-04-25T18:38:38;2.47;;;1.95;;
21138;SDS011;10727;43.600;1.444;2023-04-25T18:41:45;4.95;;;2.70;;
21138;SDS011;10727;43.600;1.444;2023-04-25T18:44:50;4.22;;;2.53;;
21138;SDS011;10727;43.600;1.444;2023-04-25T18:47:56;3.55;;;2.60;;
21138;SDS011;10727;43.600;1.444;2023-04-25T18:51:04;4.05;;;2.55;;
21138;SDS011;10727;43.600;1.444;2023-04-25T18:54:09;5.40;;;2.83;;
21138;SDS011;10727;43.600;1.444;2023-04-25T18:57:15;4.63;;;2.60;;
21138;SDS011;10727;43.600;1.444;2023-04-25T19:00:21;6.28;;;2.75;;